Time;durP1;ratioP1;P1;durP2;ratioP2;P2;SDS_P1;SDS_P2;PMS_P1;PMS_P2;Temp;Humidity;BMP_temperature;BMP_pressure;BME280_temperature;BME280_humidity;BME280_pressure;Samples;Min_cycle;Max_cycle;Signal;HPM_P1;HPM_P2
2023/04/14 00:01:34;;;;;;;1.50;0.50;;;6.20;84.00;;;;;;4747543;30;20142;-79
2023/04/14 00:04:01;;;;;;;1.92;0.50;;;6.20;84.10;;;;;;4753900;30;20055;-80
2023/04/14 00:06:28;;;;;;;2.17;0.47;;;6.20;84.30;;;;;;4756147;30;20090;-80
2023/04/14 00:08:58;;;;;;;1.23;0.40;;;6.10;84.40;;;;;;4749638;30;20047;-80
2023/04/14 00:11:26;;;;;;;1.13;0.40;;;6.10;84.50;;;;;;4746824;30;20106;-80
2023/04/14 00:13:56;;;;;;;1.38;0.40;;;6.10;84.60;;;;;;4733344;30;20052;-80
2023/04/14 00:16:25;;;;;;;1.38;0.30;;;6.00;84.60;;;;;;4742531;30;20507;-80
2023/04/14 00:18:52;;;;;;;3.13;0.63;;;6.00;84.70;;;;;;4748242;30;20494;-79
2023/04/14 00:21:22;;;;;;;2.30;0.35;;;6.00;84.80;;;;;;4750602;30;20055;-80
2023/04/14 00:23:49;;;;;;;0.70;0.30;;;5.90;84.90;;;;;;4740430;30;20480;-80
2023/04/14 00:26:16;;;;;;;1.13;0.40;;;5.90;85.00;;;;;;4729707;30;20143;-80
2023/04/14 00:28:44;;;;;;;1.35;0.20;;;5.90;85.10;;;;;;4740541;30;20056;-79
2023/04/14 00:31:11;;;;;;;2.45;0.50;;;5.90;85.20;;;;;;4745293;30;20048;-79
2023/04/14 00:33:38;;;;;;;0.95;0.30;;;5.90;85.30;;;;;;4733476;30;20108;-79
2023/04/14 00:36:06;;;;;;;2.38;0.30;;;5.80;85.30;;;;;;4746742;30;20455;-80
2023/04/14 00:38:33;;;;;;;1.02;0.22;;;5.80;85.50;;;;;;4726702;30;20063;-79
2023/04/14 00:41:00;;;;;;;1.27;0.30;;;5.80;85.50;;;;;;4752913;30;20067;-80
2023/04/14 00:43:30;;;;;;;1.48;0.32;;;5.70;85.60;;;;;;4721415;30;20060;-79
2023/04/14 00:45:57;;;;;;;1.65;0.40;;;5.70;85.60;;;;;;4753698;30;20445;-79
2023/04/14 00:48:24;;;;;;;1.40;0.40;;;5.70;85.80;;;;;;4743577;30;20040;-80
2023/04/14 00:50:52;;;;;;;1.35;0.30;;;5.60;85.80;;;;;;4732914;30;20122;-80
2023/04/14 00:53:19;;;;;;;1.13;0.40;;;5.60;85.90;;;;;;4720890;30;20144;-80
2023/04/14 00:55:46;;;;;;;1.10;0.20;;;5.60;86.10;;;;;;4751145;30;20044;-80
2023/04/14 00:58:16;;;;;;;1.65;0.43;;;5.60;86.10;;;;;;4745078;30;20063;-80
2023/04/14 01:00:44;;;;;;;0.80;0.30;;;5.50;86.20;;;;;;4740368;30;20417;-80
2023/04/14 01:03:12;;;;;;;0.98;0.25;;;5.50;86.40;;;;;;4732664;30;20121;-80
2023/04/14 01:05:41;;;;;;;1.10;0.30;;;5.50;86.50;;;;;;4740904;30;20109;-80
2023/04/14 01:08:08;;;;;;;0.80;0.30;;;5.40;86.60;;;;;;4737341;30;20117;-80
2023/04/14 01:10:43;;;;;;;1.25;0.32;;;5.40;86.60;;;;;;4749619;30;20578;-80
2023/04/14 01:13:34;;;;;;;0.75;0.43;;;5.40;86.80;;;;;;4750140;30;20045;-80
2023/04/14 01:16:13;;;;;;;0.55;0.20;;;5.40;86.90;;;;;;4745783;30;20052;-80
2023/04/14 01:18:59;;;;;;;1.02;0.75;;;5.30;87.00;;;;;;4752117;30;20167;-80
2023/04/14 01:21:34;;;;;;;0.65;0.20;;;5.30;87.00;;;;;;4749141;30;20136;-80
2023/04/14 01:24:10;;;;;;;1.23;0.30;;;5.30;87.20;;;;;;4752158;30;20055;-80
2023/04/14 01:26:37;;;;;;;1.05;0.25;;;5.20;87.20;;;;;;4758039;30;20052;-80
2023/04/14 01:29:30;;;;;;;0.73;0.25;;;5.20;87.20;;;;;;4737524;30;20064;-80
2023/04/14 01:32:08;;;;;;;1.40;0.40;;;5.20;87.30;;;;;;4750104;30;20386;-80
2023/04/14 01:34:48;;;;;;;0.63;0.25;;;5.10;87.40;;;;;;4744617;30;20414;-80
2023/04/14 01:37:28;;;;;;;1.77;0.30;;;5.10;87.50;;;;;;4727441;30;20147;-79
2023/04/14 01:40:01;;;;;;;0.98;0.32;;;5.10;87.70;;;;;;4742663;30;20056;-79
2023/04/14 01:42:34;;;;;;;1.30;0.30;;;5.10;87.70;;;;;;4725901;30;20081;-79
2023/04/14 01:45:14;;;;;;;2.53;0.45;;;5.10;87.80;;;;;;4751620;30;20142;-79
2023/04/14 01:47:44;;;;;;;1.00;0.30;;;5.00;87.90;;;;;;4734171;30;20139;-79
2023/04/14 01:50:11;;;;;;;0.55;0.40;;;5.00;88.00;;;;;;4734282;30;20409;-79
2023/04/14 01:52:41;;;;;;;3.72;0.40;;;5.00;88.10;;;;;;4734179;30;20094;-80
2023/04/14 01:55:10;;;;;;;1.88;0.40;;;5.00;88.20;;;;;;4748608;30;20052;-80
2023/04/14 01:57:42;;;;;;;0.77;0.30;;;4.90;88.20;;;;;;4735705;30;20063;-79
2023/04/14 02:00:11;;;;;;;0.88;0.25;;;4.90;88.30;;;;;;4751611;30;20480;-79
2023/04/14 02:12:38;;;;;;;1.55;0.40;;;4.70;88.50;;;;;;4756279;24;20071;-84
2023/04/14 02:15:06;;;;;;;0.75;0.30;;;4.70;88.60;;;;;;4736957;30;20055;-83
2023/04/14 02:17:34;;;;;;;1.13;0.30;;;4.70;88.80;;;;;;4742261;30;20052;-84
2023/04/14 02:20:02;;;;;;;0.98;0.30;;;4.70;88.90;;;;;;4753824;30;20087;-84
2023/04/14 02:22:29;;;;;;;0.85;0.30;;;4.70;89.00;;;;;;4736367;30;20429;-83
2023/04/14 02:24:59;;;;;;;1.17;0.30;;;4.70;89.10;;;;;;4729448;30;20056;-84
2023/04/14 02:27:37;;;;;;;0.88;0.30;;;4.70;89.10;;;;;;4746287;30;20056;-84
2023/04/14 02:30:12;;;;;;;1.92;0.30;;;4.70;89.20;;;;;;4751253;30;20074;-84
2023/04/14 02:32:44;;;;;;;0.50;0.30;;;4.60;89.20;;;;;;4736481;30;20452;-83
2023/04/14 02:35:20;;;;;;;1.95;0.50;;;4.60;89.30;;;;;;4738935;30;20528;-84
2023/04/14 02:37:52;;;;;;;2.22;0.40;;;4.60;89.40;;;;;;4766267;30;20079;-84
2023/04/14 02:40:26;;;;;;;1.25;0.30;;;4.60;89.50;;;;;;4744933;30;20506;-84
2023/04/14 02:43:00;;;;;;;1.27;0.40;;;4.60;89.60;;;;;;4758231;30;20056;-84
2023/04/14 02:45:31;;;;;;;0.88;0.32;;;4.50;89.60;;;;;;4752393;30;20056;-84
2023/04/14 02:48:07;;;;;;;1.80;0.28;;;4.50;89.70;;;;;;4736656;30;20517;-84
2023/04/14 02:50:51;;;;;;;1.30;0.35;;;4.50;89.80;;;;;;4738870;30;20056;-84
2023/04/14 02:53:24;;;;;;;1.08;0.30;;;4.50;89.90;;;;;;4751320;30;20060;-84
2023/04/14 02:56:00;;;;;;;1.43;0.50;;;4.40;89.90;;;;;;4733815;30;20072;-84
2023/04/14 02:58:32;;;;;;;;;;;4.40;90.00;;;;;;4730962;30;20072;-84
2023/04/14 03:01:00;;;;;;;0.90;0.30;;;4.30;90.00;;;;;;4723897;30;19968;-83
2023/04/14 03:03:29;;;;;;;1.70;0.50;;;4.30;90.00;;;;;;4732919;30;20054;-84
2023/04/14 03:05:57;;;;;;;1.27;0.45;;;4.30;90.00;;;;;;4741143;30;20471;-84
2023/04/14 03:08:26;;;;;;;1.52;0.57;;;4.30;90.00;;;;;;4744605;30;20087;-83
2023/04/14 03:10:55;;;;;;;1.02;0.50;;;4.30;90.10;;;;;;4751060;30;20509;-84
2023/04/14 03:13:26;;;;;;;2.03;0.60;;;4.30;90.10;;;;;;4750585;30;20077;-84
2023/04/14 03:15:55;;;;;;;1.92;0.50;;;4.30;90.10;;;;;;4736198;30;20052;-84
2023/04/14 03:18:24;;;;;;;1.92;0.50;;;4.30;90.10;;;;;;4736172;30;20052;-83
2023/04/14 03:20:54;;;;;;;1.00;0.52;;;4.30;90.20;;;;;;4736016;30;20080;-84
2023/04/14 03:23:24;;;;;;;0.85;0.40;;;4.20;90.20;;;;;;4750821;30;20102;-84
2023/04/14 03:26:00;;;;;;;0.97;0.63;;;4.20;90.20;;;;;;4736406;30;20071;-84
2023/04/14 03:28:31;;;;;;;1.63;0.75;;;4.20;90.20;;;;;;4752120;30;20052;-84
2023/04/14 03:31:03;;;;;;;2.03;0.40;;;4.20;90.30;;;;;;4739409;30;20056;-83
2023/04/14 03:33:42;;;;;;;1.98;0.40;;;4.20;90.30;;;;;;4740475;30;20480;-84
2023/04/14 03:36:14;;;;;;;2.92;0.70;;;4.10;90.30;;;;;;4754129;30;20582;-84
2023/04/14 03:38:44;;;;;;;0.98;0.45;;;4.10;90.40;;;;;;4739791;30;20048;-84
2023/04/14 03:41:13;;;;;;;1.10;0.40;;;4.10;90.40;;;;;;4739198;30;20056;-84
2023/04/14 03:43:41;;;;;;;1.20;0.50;;;4.10;90.40;;;;;;4739461;30;20449;-84
2023/04/14 03:46:13;;;;;;;1.45;0.85;;;4.10;90.40;;;;;;4739278;30;20071;-84
2023/04/14 03:48:45;;;;;;;0.82;0.40;;;4.10;90.50;;;;;;4742454;30;20083;-84
2023/04/14 03:51:15;;;;;;;1.58;0.52;;;4.10;90.50;;;;;;4739371;30;20125;-83
2023/04/14 03:53:45;;;;;;;1.30;0.57;;;4.00;90.50;;;;;;4724891;30;20058;-84
2023/04/14 03:56:16;;;;;;;1.70;0.50;;;4.00;90.50;;;;;;4738856;30;20055;-84
2023/04/14 03:58:49;;;;;;;2.17;0.50;;;4.00;90.60;;;;;;4739011;30;20596;-83
2023/04/14 04:01:24;;;;;;;0.85;0.50;;;4.00;90.60;;;;;;4738912;30;20048;-84
2023/04/14 04:03:58;;;;;;;1.02;0.50;;;4.00;90.60;;;;;;4739079;30;20084;-84
2023/04/14 04:06:26;;;;;;;1.55;0.50;;;4.00;90.70;;;;;;4746078;30;20101;-83
2023/04/14 04:08:56;;;;;;;2.57;0.60;;;3.90;90.70;;;;;;4753389;30;20054;-83
2023/04/14 04:11:27;;;;;;;1.20;0.50;;;3.90;90.70;;;;;;4738362;30;20143;-84
2023/04/14 04:13:56;;;;;;;1.23;0.47;;;3.90;90.70;;;;;;4738794;30;20063;-83
2023/04/14 04:16:26;;;;;;;1.38;0.50;;;3.90;90.80;;;;;;4753508;30;20493;-83
2023/04/14 04:18:54;;;;;;;2.53;1.10;;;3.90;90.80;;;;;;4753376;30;20054;-83
2023/04/14 04:21:30;;;;;;;1.48;0.73;;;3.80;90.80;;;;;;4738901;30;20062;-84
2023/04/14 04:24:00;;;;;;;1.95;0.70;;;3.80;90.80;;;;;;4742955;30;20059;-84
2023/04/14 04:26:28;;;;;;;1.63;0.60;;;3.80;90.90;;;;;;4738466;30;20055;-83
2023/04/14 04:28:56;;;;;;;1.75;0.60;;;3.80;90.90;;;;;;4750121;30;20059;-84
2023/04/14 04:31:27;;;;;;;1.42;0.50;;;3.70;90.90;;;;;;4733040;30;20056;-83
2023/04/14 04:33:57;;;;;;;1.23;0.40;;;3.70;90.90;;;;;;4738633;30;20387;-84
2023/04/14 04:36:30;;;;;;;2.85;0.60;;;3.70;91.00;;;;;;4738391;30;20049;-83
2023/04/14 04:38:58;;;;;;;2.70;0.75;;;3.70;91.00;;;;;;4747675;30;20462;-84
2023/04/14 04:41:29;;;;;;;2.95;0.80;;;3.70;91.00;;;;;;4745558;30;20049;-84
2023/04/14 04:43:59;;;;;;;2.00;0.93;;;3.60;91.00;;;;;;4738631;30;20071;-84
2023/04/14 04:46:41;;;;;;;1.35;0.60;;;3.60;91.00;;;;;;4723769;30;20502;-84
2023/04/14 04:49:09;;;;;;;1.63;0.60;;;3.60;91.10;;;;;;4737977;30;20056;-83
2023/04/14 04:51:37;;;;;;;1.63;0.60;;;3.60;91.10;;;;;;4724107;30;20056;-84
2023/04/14 04:54:05;;;;;;;1.80;0.70;;;3.60;91.10;;;;;;4724283;30;20452;-86
2023/04/14 04:56:32;;;;;;;1.75;0.57;;;3.60;91.10;;;;;;4753121;30;20059;-87
2023/04/14 04:59:00;;;;;;;1.58;0.43;;;3.60;91.10;;;;;;4753418;30;20062;-87
2023/04/14 05:01:30;;;;;;;2.15;0.70;;;3.60;91.10;;;;;;4753451;30;20053;-86
2023/04/14 05:03:57;;;;;;;2.53;0.70;;;3.60;91.10;;;;;;4738235;30;20052;-87
2023/04/14 05:06:25;;;;;;;2.75;0.88;;;3.60;91.10;;;;;;4753095;30;20075;-86
2023/04/14 05:08:53;;;;;;;1.40;0.60;;;3.70;91.20;;;;;;4738251;30;20078;-86
2023/04/14 05:11:21;;;;;;;1.33;0.50;;;3.70;91.10;;;;;;4738157;30;20571;-87
2023/04/14 05:13:48;;;;;;;2.25;0.60;;;3.70;91.10;;;;;;4737827;30;20071;-87
2023/04/14 05:16:15;;;;;;;1.98;0.85;;;3.70;91.10;;;;;;4738055;30;20056;-87
2023/04/14 05:18:43;;;;;;;2.20;0.90;;;3.70;91.40;;;;;;4738472;30;20048;-87
2023/04/14 05:21:12;;;;;;;1.83;0.70;;;3.70;91.10;;;;;;4723544;30;20138;-87
2023/04/14 05:23:42;;;;;;;2.00;0.50;;;3.70;91.20;;;;;;4752908;30;20052;-86
2023/04/14 05:26:13;;;;;;;1.65;0.70;;;3.70;91.20;;;;;;4745049;30;20056;-87
2023/04/14 05:29:00;;;;;;;2.83;0.98;;;3.80;91.20;;;;;;4730088;30;20044;-87
2023/04/14 05:31:28;;;;;;;2.60;1.08;;;3.80;91.20;;;;;;4738448;30;20048;-87
2023/04/14 05:33:55;;;;;;;1.83;0.80;;;3.90;91.20;;;;;;4737806;30;20114;-87
2023/04/14 05:36:22;;;;;;;1.83;0.75;;;3.90;91.10;;;;;;4737711;30;20106;-87
2023/04/14 05:38:49;;;;;;;1.95;0.68;;;4.00;91.10;;;;;;4723211;30;20048;-87
2023/04/14 05:41:16;;;;;;;3.47;1.10;;;4.00;91.00;;;;;;4722820;30;20054;-86
2023/04/14 05:43:43;;;;;;;2.47;0.88;;;4.10;91.00;;;;;;4722961;30;20520;-86
2023/04/14 05:46:10;;;;;;;1.77;0.65;;;4.20;90.90;;;;;;4720410;30;20052;-87
2023/04/14 05:48:37;;;;;;;1.50;0.70;;;4.30;90.90;;;;;;4734339;30;20056;-86
2023/04/14 05:51:05;;;;;;;4.57;1.10;;;4.40;90.80;;;;;;4722770;30;20098;-87
2023/04/14 05:53:32;;;;;;;1.77;0.68;;;4.40;90.70;;;;;;4734515;30;20076;-87
2023/04/14 05:55:59;;;;;;;1.90;0.90;;;4.60;90.70;;;;;;4723034;30;20065;-86
2023/04/14 05:58:26;;;;;;;3.15;1.00;;;4.70;90.60;;;;;;4721643;30;20045;-86
2023/04/14 06:00:53;;;;;;;2.08;0.95;;;4.70;90.50;;;;;;4722795;30;20110;-86
2023/04/14 06:03:20;;;;;;;2.53;0.90;;;4.80;90.50;;;;;;4723018;30;20056;-87
2023/04/14 06:05:47;;;;;;;2.45;0.80;;;4.90;90.40;;;;;;4722866;30;20090;-86
2023/04/14 06:08:14;;;;;;;2.78;0.80;;;5.00;90.40;;;;;;4737065;30;20476;-86
2023/04/14 06:10:41;;;;;;;2.45;0.82;;;5.20;90.40;;;;;;4736814;30;20044;-86
2023/04/14 06:13:08;;;;;;;2.70;0.95;;;5.20;90.30;;;;;;4722282;30;20098;-86
2023/04/14 06:15:36;;;;;;;1.63;0.77;;;5.30;90.20;;;;;;4722694;30;20580;-86
2023/04/14 06:18:03;;;;;;;2.15;0.80;;;5.40;90.20;;;;;;4736943;30;20078;-87
2023/04/14 06:20:30;;;;;;;1.58;0.68;;;5.50;90.10;;;;;;4724604;30;20052;-86
2023/04/14 06:22:59;;;;;;;2.63;0.90;;;5.60;90.10;;;;;;4724444;30;20059;-87
2023/04/14 06:25:26;;;;;;;1.90;0.68;;;5.70;90.00;;;;;;4751880;30;20501;-87
2023/04/14 06:27:54;;;;;;;2.17;0.98;;;5.80;90.00;;;;;;4722343;30;20056;-87
2023/04/14 06:30:21;;;;;;;2.28;0.75;;;5.90;89.90;;;;;;4737975;30;20490;-87
2023/04/14 06:32:52;;;;;;;3.00;0.73;;;6.00;89.70;;;;;;4736875;30;20048;-86
2023/04/14 06:35:20;;;;;;;2.17;0.70;;;6.10;89.60;;;;;;4736812;30;20052;-87
2023/04/14 06:37:59;;;;;;;1.00;0.52;;;6.20;89.50;;;;;;4737031;30;20052;-86
2023/04/14 06:40:27;;;;;;;2.67;0.60;;;6.30;89.40;;;;;;4737061;30;20052;-89
2023/04/14 06:42:54;;;;;;;1.88;0.60;;;6.40;89.30;;;;;;4737101;30;20063;-87
2023/04/14 06:45:21;;;;;;;2.08;0.80;;;6.50;89.10;;;;;;4722509;30;20055;-87
2023/04/14 06:47:48;;;;;;;2.10;0.60;;;6.60;89.00;;;;;;4722503;30;20059;-87
2023/04/14 06:50:15;;;;;;;1.80;0.80;;;6.70;88.90;;;;;;4715040;30;20049;-87
2023/04/14 06:52:42;;;;;;;2.00;0.55;;;6.80;88.70;;;;;;4719516;30;20053;-86
2023/04/14 06:55:09;;;;;;;1.30;0.60;;;6.90;88.60;;;;;;4731166;30;20056;-87
2023/04/14 06:57:36;;;;;;;3.10;0.80;;;7.00;88.50;;;;;;4736676;30;20055;-87
2023/04/14 07:00:07;;;;;;;5.18;1.10;;;7.10;88.40;;;;;;4736611;30;20056;-87
2023/04/14 07:02:34;;;;;;;3.53;0.95;;;7.20;88.30;;;;;;4736634;30;20058;-87
2023/04/14 07:05:01;;;;;;;2.47;1.10;;;7.20;88.20;;;;;;4725631;30;20052;-87
2023/04/14 07:07:29;;;;;;;3.33;1.35;;;7.30;88.20;;;;;;4740316;30;20062;-87
2023/04/14 07:09:56;;;;;;;3.10;0.57;;;7.40;88.20;;;;;;4725474;30;20059;-83
2023/04/14 07:12:25;;;;;;;1.58;0.60;;;7.50;88.10;;;;;;4739597;30;20191;-83
2023/04/14 07:14:52;;;;;;;1.48;0.55;;;7.60;88.00;;;;;;4739614;30;20525;-84
2023/04/14 07:17:19;;;;;;;1.45;0.50;;;7.70;87.80;;;;;;4725398;30;20497;-83
2023/04/14 07:19:46;;;;;;;2.35;0.50;;;7.80;87.70;;;;;;4739582;30;20139;-83
2023/04/14 07:22:13;;;;;;;1.83;0.50;;;7.90;87.50;;;;;;4754156;30;20048;-83
2023/04/14 07:24:40;;;;;;;1.77;0.60;;;8.00;87.40;;;;;;4739092;30;20135;-83
2023/04/14 07:27:13;;;;;;;1.20;0.50;;;8.10;87.30;;;;;;4725193;30;20494;-83
2023/04/14 07:29:41;;;;;;;1.58;0.60;;;8.20;87.10;;;;;;4725800;30;20052;-83
2023/04/14 07:32:10;;;;;;;1.92;0.60;;;8.40;87.00;;;;;;4724947;30;20418;-83
2023/04/14 07:34:42;;;;;;;1.98;0.70;;;8.50;86.80;;;;;;4725297;30;20044;-83
2023/04/14 07:37:10;;;;;;;1.85;0.77;;;8.60;86.70;;;;;;4739249;30;20063;-84
2023/04/14 07:39:37;;;;;;;2.05;0.60;;;8.70;86.50;;;;;;4739604;30;20052;-87
2023/04/14 07:42:05;;;;;;;1.77;0.60;;;8.80;86.40;;;;;;4754392;30;20049;-87
2023/04/14 07:44:32;;;;;;;2.10;0.57;;;8.90;86.30;;;;;;4754394;30;20052;-87
2023/04/14 07:46:59;;;;;;;1.88;0.65;;;9.00;86.20;;;;;;4739879;30;20052;-87
2023/04/14 07:49:26;;;;;;;3.38;0.57;;;9.10;86.00;;;;;;4739906;30;20083;-86
2023/04/14 07:51:55;;;;;;;1.33;0.40;;;9.20;85.90;;;;;;4739098;30;20063;-87
2023/04/14 07:54:23;;;;;;;1.05;0.40;;;9.30;85.70;;;;;;4739760;30;20052;-86
2023/04/14 07:56:50;;;;;;;1.92;0.50;;;9.40;85.60;;;;;;4739297;30;20059;-86
2023/04/14 07:59:17;;;;;;;2.47;0.55;;;9.50;85.40;;;;;;4739776;30;20461;-89
2023/04/14 08:01:44;;;;;;;1.65;0.60;;;9.60;85.30;;;;;;4739715;30;20076;-87
2023/04/14 08:04:11;;;;;;;1.98;0.60;;;9.70;85.20;;;;;;4740292;30;20056;-89
2023/04/14 08:06:41;;;;;;;2.13;0.40;;;9.80;85.10;;;;;;4739743;30;20056;-89
2023/04/14 08:09:08;;;;;;;2.45;0.82;;;9.90;85.00;;;;;;4740100;30;20066;-89
2023/04/14 08:11:35;;;;;;;1.90;0.40;;;10.00;84.80;;;;;;4753971;30;20047;-89
2023/04/14 08:14:03;;;;;;;1.48;0.60;;;10.10;84.70;;;;;;4735976;30;20087;-88
2023/04/14 08:16:35;;;;;;;2.20;0.60;;;10.20;84.50;;;;;;4736192;30;20060;-88
2023/04/14 08:19:03;;;;;;;1.02;0.30;;;10.30;84.40;;;;;;4736705;30;20117;-88
2023/04/14 08:21:31;;;;;;;1.08;0.30;;;10.40;84.20;;;;;;4736503;30;20559;-88
2023/04/14 08:23:58;;;;;;;2.03;0.50;;;10.50;84.10;;;;;;4736410;30;20064;-88
2023/04/14 08:26:26;;;;;;;1.70;0.40;;;10.60;84.10;;;;;;4736038;30;20056;-88
2023/04/14 08:28:53;;;;;;;1.13;0.40;;;10.70;83.90;;;;;;4722034;30;20063;-89
2023/04/14 08:31:23;;;;;;;1.00;0.20;;;10.80;83.70;;;;;;4740275;30;20118;-89
2023/04/14 08:33:53;;;;;;;1.08;0.40;;;10.90;83.60;;;;;;4722506;30;20055;-88
2023/04/14 08:36:20;;;;;;;1.33;0.30;;;11.00;83.40;;;;;;4736555;30;20126;-88
2023/04/14 08:38:47;;;;;;;1.63;0.30;;;11.10;83.20;;;;;;4736147;30;20068;-91
2023/04/14 08:41:18;;;;;;;1.73;0.40;;;11.10;83.00;;;;;;4736207;30;20052;-91
2023/04/14 08:43:45;;;;;;;2.20;0.63;;;11.20;83.20;;;;;;4736149;30;20061;-87
2023/04/14 08:46:14;;;;;;;3.05;0.57;;;11.30;82.00;;;;;;4735525;30;20414;-88
2023/04/14 08:48:46;;;;;;;1.48;0.30;;;11.40;82.00;;;;;;4737076;30;20127;-88
2023/04/14 08:51:20;;;;;;;3.30;0.43;;;11.50;81.90;;;;;;4750838;30;20065;-88
2023/04/14 08:53:48;;;;;;;4.95;0.70;;;11.60;81.70;;;;;;4750302;30;20133;-87
2023/04/14 08:56:17;;;;;;;2.65;0.60;;;11.70;81.50;;;;;;4735548;30;20224;-88
2023/04/14 08:58:46;;;;;;;2.15;0.55;;;11.80;80.80;;;;;;4721455;30;20048;-87
2023/04/14 09:01:13;;;;;;;3.95;1.13;;;11.90;80.60;;;;;;4735376;30;20088;-88
2023/04/14 09:03:42;;;;;;;1.73;0.63;;;11.90;80.20;;;;;;4750118;30;20058;-87
2023/04/14 09:06:10;;;;;;;4.10;0.57;;;11.90;80.00;;;;;;4735680;30;20056;-88
2023/04/14 09:08:37;;;;;;;2.40;0.40;;;12.00;80.10;;;;;;4735560;30;20049;-88
2023/04/14 09:11:05;;;;;;;2.50;0.47;;;12.10;80.10;;;;;;4735169;30;20049;-88
2023/04/14 09:13:32;;;;;;;2.10;0.50;;;12.10;79.80;;;;;;4738228;30;20088;-88
2023/04/14 09:16:00;;;;;;;1.70;0.50;;;12.20;79.60;;;;;;4738518;30;20106;-88
2023/04/14 09:18:28;;;;;;;2.50;0.52;;;12.30;79.30;;;;;;4723809;30;20109;-88
2023/04/14 09:20:59;;;;;;;1.13;0.30;;;12.40;79.20;;;;;;4737819;30;20063;-88
2023/04/14 09:23:46;;;;;;;2.50;0.30;;;12.40;79.10;;;;;;4735773;30;20131;-88
2023/04/14 09:26:13;;;;;;;2.33;0.32;;;12.50;79.30;;;;;;4736095;30;20063;-88
2023/04/14 09:28:41;;;;;;;1.48;0.20;;;12.60;78.60;;;;;;4738438;30;20125;-88
2023/04/14 09:31:09;;;;;;;2.85;0.30;;;12.70;78.40;;;;;;4738645;30;20151;-88
2023/04/14 09:33:43;;;;;;;2.33;0.40;;;12.80;78.40;;;;;;4738159;30;20143;-88
2023/04/14 09:36:18;;;;;;;2.47;0.50;;;12.90;78.10;;;;;;4753685;30;20056;-88
2023/04/14 09:38:45;;;;;;;3.65;0.30;;;13.00;77.10;;;;;;4737731;30;20109;-89
2023/04/14 09:41:24;;;;;;;1.08;0.20;;;13.00;77.40;;;;;;4752723;30;20060;-88
2023/04/14 09:43:51;;;;;;;2.00;0.40;;;13.20;76.90;;;;;;4737844;30;20056;-88
2023/04/14 09:46:19;;;;;;;1.17;0.20;;;13.20;76.80;;;;;;4732515;30;20060;-89
2023/04/14 09:48:54;;;;;;;2.22;0.20;;;13.20;76.60;;;;;;4737575;30;20501;-88
2023/04/14 09:51:29;;;;;;;2.03;0.30;;;13.30;76.40;;;;;;4720667;30;20103;-89
2023/04/14 09:54:03;;;;;;;3.00;0.22;;;13.40;76.30;;;;;;4720649;30;20139;-87
2023/04/14 09:56:31;;;;;;;0.68;0.13;;;13.50;75.90;;;;;;4723248;30;20064;-87
2023/04/14 09:59:00;;;;;;;1.75;0.40;;;13.60;75.50;;;;;;4723456;30;20082;-89
2023/04/14 10:01:30;;;;;;;3.92;0.40;;;13.60;73.90;;;;;;4752991;30;20063;-90
2023/04/14 10:04:00;;;;;;;1.77;0.28;;;13.70;73.40;;;;;;4738158;30;20055;-92
2023/04/14 10:06:31;;;;;;;2.58;0.30;;;13.90;73.10;;;;;;4738460;30;20066;-90
2023/04/14 10:08:59;;;;;;;0.75;0.20;;;13.90;72.80;;;;;;4737558;30;20052;-89
2023/04/14 10:11:28;;;;;;;0.93;0.20;;;13.90;72.80;;;;;;4723079;30;20063;-90
2023/04/14 10:13:58;;;;;;;0.50;0.10;;;13.90;72.80;;;;;;4733790;30;20111;-83
2023/04/14 10:16:26;;;;;;;0.93;0.20;;;14.10;72.50;;;;;;4733986;30;20422;-86
2023/04/14 10:18:57;;;;;;;2.25;0.20;;;14.20;72.00;;;;;;4734425;30;20057;-84
2023/04/14 10:21:26;;;;;;;0.68;0.10;;;14.40;71.60;;;;;;4719865;30;20083;-82
2023/04/14 10:23:57;;;;;;;2.67;0.38;;;14.70;70.70;;;;;;4734284;30;20151;-84
2023/04/14 10:26:25;;;;;;;1.48;0.20;;;14.80;68.50;;;;;;4733427;30;20567;-83
2023/04/14 10:28:54;;;;;;;1.27;0.35;;;15.10;68.00;;;;;;4751210;30;20529;-85
2023/04/14 10:31:44;;;;;;;2.22;0.40;;;15.50;67.40;;;;;;4733733;30;20049;-90
2023/04/14 10:34:13;;;;;;;2.42;0.30;;;15.60;67.20;;;;;;4703200;30;20093;-91
2023/04/14 10:36:42;;;;;;;0.63;0.20;;;15.30;67.50;;;;;;4734525;30;20502;-90
2023/04/14 10:39:12;;;;;;;2.70;0.20;;;14.90;67.60;;;;;;4733404;30;20053;-88
2023/04/14 10:41:46;;;;;;;1.95;0.15;;;14.70;68.50;;;;;;4733949;30;20053;-91
2023/04/14 10:44:25;;;;;;;1.08;0.10;;;14.80;68.50;;;;;;4734398;30;20060;-95
2023/04/14 10:46:56;;;;;;;1.00;0.20;;;14.60;68.40;;;;;;4735596;30;20155;-92
2023/04/14 10:49:48;;;;;;;0.22;0.10;;;14.50;69.00;;;;;;4749301;30;20061;-92
2023/04/14 10:52:15;;;;;;;1.27;0.20;;;14.70;68.60;;;;;;4734429;30;20490;-93
2023/04/14 10:54:51;;;;;;;0.80;0.10;;;14.80;67.80;;;;;;4734857;30;20307;-93
2023/04/14 10:57:22;;;;;;;1.65;0.20;;;14.80;67.70;;;;;;4735208;30;20435;-92
2023/04/14 10:59:59;;;;;;;1.23;0.20;;;14.80;68.50;;;;;;4749202;30;20057;-92
2023/04/14 11:02:33;;;;;;;0.30;0.10;;;14.90;67.60;;;;;;4714670;30;20057;-92
2023/04/14 11:05:07;;;;;;;4.03;0.20;;;15.10;67.00;;;;;;4734504;30;20057;-92
2023/04/14 11:07:44;;;;;;;1.27;0.30;;;15.30;66.80;;;;;;4733300;30;20049;-93
2023/04/14 11:10:20;;;;;;;1.30;0.32;;;15.50;66.20;;;;;;4734079;30;20064;-93
2023/04/14 11:12:54;;;;;;;2.03;0.10;;;15.40;66.30;;;;;;4751774;30;20056;-93
2023/04/14 11:15:21;;;;;;;1.85;0.20;;;15.20;66.60;;;;;;4737744;30;20048;-93
2023/04/14 11:17:49;;;;;;;2.08;0.20;;;15.10;67.00;;;;;;4737183;30;20508;-91
2023/04/14 11:20:19;;;;;;;1.10;0.20;;;15.00;66.60;;;;;;4733561;30;20052;-92
2023/04/14 11:22:48;;;;;;;2.25;0.45;;;15.00;66.60;;;;;;4753375;30;20417;-93
2023/04/14 11:25:20;;;;;;;2.20;0.30;;;15.10;66.40;;;;;;4737392;30;20060;-91
2023/04/14 11:28:02;;;;;;;2.70;0.30;;;15.60;65.70;;;;;;4741419;30;20056;-90
2023/04/14 11:30:30;;;;;;;;;;;15.80;64.90;;;;;;4726107;30;20052;-93
2023/04/14 11:32:57;;;;;;;1.00;0.20;;;16.20;64.90;;;;;;4737976;30;19926;-93
2023/04/14 11:35:30;;;;;;;0.90;0.20;;;17.00;63.40;;;;;;4720749;30;20143;-95
2023/04/14 11:37:59;;;;;;;1.48;0.20;;;17.60;62.50;;;;;;4731835;30;20074;-92
2023/04/14 11:40:30;;;;;;;2.45;0.40;;;18.00;61.00;;;;;;4740234;30;20059;-91
2023/04/14 11:43:01;;;;;;;1.40;0.40;;;18.50;59.50;;;;;;4753654;30;20082;-91
2023/04/14 11:45:29;;;;;;;2.75;0.35;;;18.90;58.20;;;;;;4738405;30;20524;-93
2023/04/14 11:48:00;;;;;;;3.45;0.50;;;19.30;57.70;;;;;;4752928;30;20056;-91
2023/04/14 11:50:31;;;;;;;2.53;0.30;;;19.50;57.20;;;;;;4740377;30;20051;-92
2023/04/14 11:52:59;;;;;;;2.55;0.52;;;19.30;57.50;;;;;;4742111;30;20048;-95
2023/04/14 11:55:32;;;;;;;3.78;0.43;;;19.20;57.90;;;;;;4741904;30;20048;-94
2023/04/14 11:58:03;;;;;;;1.73;0.70;;;18.90;58.20;;;;;;4742416;30;20080;-95
2023/04/14 12:00:32;;;;;;;1.33;0.30;;;18.70;58.70;;;;;;4741570;30;20109;-91
2023/04/14 12:03:03;;;;;;;3.25;0.40;;;19.10;58.40;;;;;;4740753;30;20060;-81
2023/04/14 12:05:32;;;;;;;2.13;0.40;;;19.60;58.00;;;;;;4753811;30;20075;-86
2023/04/14 12:08:06;;;;;;;1.13;0.22;;;19.90;57.50;;;;;;4740354;30;20059;-91
2023/04/14 12:10:37;;;;;;;1.73;0.50;;;20.10;57.10;;;;;;4739964;30;20056;-89
2023/04/14 12:13:09;;;;;;;2.90;0.68;;;19.40;57.10;;;;;;4750705;30;20060;-89
2023/04/14 12:15:39;;;;;;;3.05;0.80;;;18.50;57.60;;;;;;4739091;30;20048;-85
2023/04/14 12:18:13;;;;;;;3.03;0.50;;;17.90;59.10;;;;;;4753814;30;20040;-91
2023/04/14 12:20:46;;;;;;;4.18;0.55;;;17.30;60.10;;;;;;4739425;30;20048;-89
2023/04/14 12:23:14;;;;;;;2.47;0.50;;;16.90;61.20;;;;;;4740041;30;20051;-88
2023/04/14 12:25:42;;;;;;;0.75;0.30;;;16.50;61.90;;;;;;4749461;30;20107;-87
2023/04/14 12:28:11;;;;;;;2.00;0.35;;;16.20;62.40;;;;;;4738988;30;20052;-84
2023/04/14 12:30:50;;;;;;;1.98;0.38;;;16.00;62.50;;;;;;4738746;30;20452;-85
2023/04/14 12:33:22;;;;;;;0.50;0.20;;;16.00;62.60;;;;;;4744221;30;20061;-85
2023/04/14 12:35:50;;;;;;;1.65;0.22;;;16.10;62.60;;;;;;4738518;30;20060;-84
2023/04/14 12:38:17;;;;;;;1.70;0.35;;;16.20;62.30;;;;;;4738373;30;20125;-84
2023/04/14 12:40:46;;;;;;;2.10;0.40;;;16.10;62.10;;;;;;4739086;30;20331;-92
2023/04/14 12:43:49;;;;;;;3.05;0.32;;;16.10;62.00;;;;;;4739740;30;20139;-92
2023/04/14 12:46:26;;;;;;;4.25;0.40;;;16.10;61.80;;;;;;4739691;30;20056;-91
2023/04/14 12:50:18;;;;;;;1.33;0.30;;;16.00;61.40;;;;;;4740767;30;20052;-90
2023/04/14 12:52:58;;;;;;;2.03;0.32;;;16.00;61.40;;;;;;4742249;30;20080;-96
2023/04/14 12:55:38;;;;;;;3.58;0.32;;;15.90;61.80;;;;;;4741753;30;20056;-91
2023/04/14 12:58:17;;;;;;;2.60;0.30;;;15.90;61.80;;;;;;4740844;30;20056;-89
2023/04/14 13:00:55;;;;;;;1.55;0.25;;;15.90;61.70;;;;;;4744243;30;20102;-96
2023/04/14 13:07:02;;;;;;;2.78;0.30;;;16.30;61.10;;;;;;4753675;30;20044;-91
2023/04/14 13:09:35;;;;;;;1.85;0.35;;;16.30;61.10;;;;;;4741664;30;20109;-95
2023/04/14 13:12:15;;;;;;;1.52;0.30;;;16.20;60.80;;;;;;4738818;30;20064;-94
2023/04/14 13:14:52;;;;;;;1.23;0.30;;;16.30;61.00;;;;;;4739042;30;20056;-93
2023/04/14 13:31:30;;;;;;;;;;;;;;;;;;;;;
2023/04/14 13:35:30;;;;;;;;;;;;;;;;;;;;;
2023/04/14 13:38:35;;;;;;;3.05;0.63;;;16.00;61.10;;;;;;4688961;30;20061;-91
2023/04/14 13:45:31;;;;;;;3.45;0.50;;;16.20;60.90;;;;;;4655119;30;20048;-92
2023/04/14 13:52:23;;;;;;;1.25;0.30;;;16.00;60.80;;;;;;4667939;30;20427;-90